sensor_id;sensor_type;location;lat;lon;timestamp;pressure;altitude;pressure_sealevel;temperature;humidity
65157;BME280;52745;49.794;18.258;2023-02-21T00:00:45;-16181.66;;;9.15;69.10
65157;BME280;52745;49.794;18.258;2023-02-21T00:03:32;-16182.75;;;9.19;69.08
65157;BME280;52745;49.794;18.258;2023-02-21T00:06:18;-16182.06;;;9.17;69.09
65157;BME280;52745;49.794;18.258;2023-02-21T00:09:03;-16182.06;;;9.17;69.40
65157;BME280;52745;49.794;18.258;2023-02-21T00:11:48;-16183.00;;;9.20;68.80
65157;BME280;52745;49.794;18.258;2023-02-21T00:14:36;-16183.16;;;9.21;68.89
65157;BME280;52745;49.794;18.258;2023-02-21T00:17:22;-16184.09;;;9.24;68.74
65157;BME280;52745;49.794;18.258;2023-02-21T00:20:08;-16184.50;;;9.26;68.83
65157;BME280;52745;49.794;18.258;2023-02-21T00:22:53;-16184.91;;;9.27;68.61
65157;BME280;52745;49.794;18.258;2023-02-21T00:25:38;-16184.78;;;9.27;69.04
65157;BME280;52745;49.794;18.258;2023-02-21T00:28:23;-16185.59;;;9.30;68.69
65157;BME280;52745;49.794;18.258;2023-02-21T00:31:09;-16185.47;;;9.29;68.92
65157;BME280;52745;49.794;18.258;2023-02-21T00:33:54;-16185.34;;;9.29;69.13
65157;BME280;52745;49.794;18.258;2023-02-21T00:36:40;-16184.78;;;9.27;69.28
65157;BME280;52745;49.794;18.258;2023-02-21T00:39:25;-16183.56;;;9.22;69.76
65157;BME280;52745;49.794;18.258;2023-02-21T00:42:10;-16181.91;;;9.16;69.81
65157;BME280;52745;49.794;18.258;2023-02-21T00:44:56;-16180.69;;;9.11;69.93
65157;BME280;52745;49.794;18.258;2023-02-21T00:47:41;-16179.88;;;9.08;70.21
65157;BME280;52745;49.794;18.258;2023-02-21T00:50:26;-16180.00;;;9.09;70.40
65157;BME280;52745;49.794;18.258;2023-02-21T00:53:11;-16178.66;;;9.04;70.76
65157;BME280;52745;49.794;18.258;2023-02-21T00:55:57;-16179.19;;;9.06;70.75
65157;BME280;52745;49.794;18.258;2023-02-21T00:58:42;-16180.41;;;9.10;70.66
65157;BME280;52745;49.794;18.258;2023-02-21T01:01:28;-16179.47;;;9.07;70.92
65157;BME280;52745;49.794;18.258;2023-02-21T01:04:13;-16179.75;;;9.08;70.92
65157;BME280;52745;49.794;18.258;2023-02-21T01:06:58;-16180.16;;;9.09;70.80
65157;BME280;52745;49.794;18.258;2023-02-21T01:09:43;-16180.41;;;9.10;70.89
65157;BME280;52745;49.794;18.258;2023-02-21T01:12:29;-16181.38;;;9.14;70.96
65157;BME280;52745;49.794;18.258;2023-02-21T01:15:14;-16180.56;;;9.11;70.92
65157;BME280;52745;49.794;18.258;2023-02-21T01:17:59;-16180.00;;;9.09;71.27
65157;BME280;52745;49.794;18.258;2023-02-21T01:20:44;-16180.28;;;9.10;70.89
65157;BME280;52745;49.794;18.258;2023-02-21T01:23:30;-16180.56;;;9.11;71.10
65157;BME280;52745;49.794;18.258;2023-02-21T01:26:16;-16180.00;;;9.09;71.14
65157;BME280;52745;49.794;18.258;2023-02-21T01:29:01;-16180.28;;;9.10;71.63
65157;BME280;52745;49.794;18.258;2023-02-21T01:31:48;-16180.28;;;9.10;71.13
65157;BME280;52745;49.794;18.258;2023-02-21T01:34:33;-16179.47;;;9.07;71.70
65157;BME280;52745;49.794;18.258;2023-02-21T01:37:19;-16178.78;;;9.04;71.49
65157;BME280;52745;49.794;18.258;2023-02-21T01:40:05;-16178.25;;;9.02;71.43
65157;BME280;52745;49.794;18.258;2023-02-21T01:42:50;-16177.41;;;8.99;72.06
65157;BME280;52745;49.794;18.258;2023-02-21T01:48:21;-16176.75;;;8.97;71.85
65157;BME280;52745;49.794;18.258;2023-02-21T01:51:09;-16176.47;;;8.96;71.95
65157;BME280;52745;49.794;18.258;2023-02-21T01:53:55;-16176.31;;;8.95;72.26
65157;BME280;52745;49.794;18.258;2023-02-21T01:56:41;-16176.47;;;8.96;71.85
65157;BME280;52745;49.794;18.258;2023-02-21T01:59:27;-16176.47;;;8.96;72.15
65157;BME280;52745;49.794;18.258;2023-02-21T02:02:19;-16177.00;;;8.98;72.03
65157;BME280;52745;49.794;18.258;2023-02-21T02:05:08;-16177.28;;;8.99;72.17
65157;BME280;52745;49.794;18.258;2023-02-21T02:07:55;-16177.16;;;8.98;72.39
65157;BME280;52745;49.794;18.258;2023-02-21T02:10:41;-16176.88;;;8.97;72.34
65157;BME280;52745;49.794;18.258;2023-02-21T02:27:45;-16178.50;;;9.03;72.20
65157;BME280;52745;49.794;18.258;2023-02-21T02:36:09;-16176.75;;;8.97;72.21
65157;BME280;52745;49.794;18.258;2023-02-21T02:39:03;-16177.28;;;8.99;72.27
65157;BME280;52745;49.794;18.258;2023-02-21T02:41:45;-16177.28;;;8.99;72.30
65157;BME280;52745;49.794;18.258;2023-02-21T02:44:19;-16175.91;;;8.94;72.30
65157;BME280;52745;49.794;18.258;2023-02-21T02:46:48;-16174.81;;;8.89;72.55
65157;BME280;52745;49.794;18.258;2023-02-21T02:49:21;-16175.38;;;8.91;72.48
65157;BME280;52745;49.794;18.258;2023-02-21T02:51:51;-16174.41;;;8.88;72.98
65157;BME280;52745;49.794;18.258;2023-02-21T02:54:20;-16173.72;;;8.85;72.84
65157;BME280;52745;49.794;18.258;2023-02-21T02:56:48;-16174.97;;;8.90;73.04
65157;BME280;52745;49.794;18.258;2023-02-21T02:59:20;-16174.00;;;8.86;73.24
65157;BME280;52745;49.794;18.258;2023-02-21T03:07:16;-16174.69;;;8.89;72.62
65157;BME280;52745;49.794;18.258;2023-02-21T03:15:21;-16173.72;;;8.85;73.29
65157;BME280;52745;49.794;18.258;2023-02-21T03:18:05;-16173.47;;;8.84;73.17
65157;BME280;52745;49.794;18.258;2023-02-21T03:20:36;-16172.66;;;8.81;73.47
65157;BME280;52745;49.794;18.258;2023-02-21T03:23:05;-16174.00;;;8.86;73.60
65157;BME280;52745;49.794;18.258;2023-02-21T03:25:33;-16172.38;;;8.80;73.84
65157;BME280;52745;49.794;18.258;2023-02-21T03:28:03;-16172.66;;;8.81;74.13
65157;BME280;52745;49.794;18.258;2023-02-21T03:30:40;-16173.19;;;8.83;74.16
65157;BME280;52745;49.794;18.258;2023-02-21T03:33:08;-16171.13;;;8.76;74.11
65157;BME280;52745;49.794;18.258;2023-02-21T03:35:35;-16172.09;;;8.79;74.13
65157;BME280;52745;49.794;18.258;2023-02-21T03:38:03;-16171.56;;;8.77;74.45
65157;BME280;52745;49.794;18.258;2023-02-21T03:40:32;-16171.00;;;8.75;74.37
65157;BME280;52745;49.794;18.258;2023-02-21T03:43:02;-16171.28;;;8.76;74.34
65157;BME280;52745;49.794;18.258;2023-02-21T03:45:36;-16170.31;;;8.73;74.38
65157;BME280;52745;49.794;18.258;2023-02-21T03:48:13;-16172.09;;;8.79;74.34
65157;BME280;52745;49.794;18.258;2023-02-21T03:50:41;-16171.41;;;8.77;74.56
65157;BME280;52745;49.794;18.258;2023-02-21T03:53:09;-16169.91;;;8.71;74.66
65157;BME280;52745;49.794;18.258;2023-02-21T03:55:36;-16170.31;;;8.73;74.72
65157;BME280;52745;49.794;18.258;2023-02-21T03:58:08;-16171.28;;;8.76;74.56
65157;BME280;52745;49.794;18.258;2023-02-21T04:00:36;-16170.47;;;8.73;74.40
65157;BME280;52745;49.794;18.258;2023-02-21T04:03:03;-16169.63;;;8.70;74.41
65157;BME280;52745;49.794;18.258;2023-02-21T04:05:52;-16170.19;;;8.72;74.58
65157;BME280;52745;49.794;18.258;2023-02-21T04:08:20;-16170.59;;;8.74;74.66
65157;BME280;52745;49.794;18.258;2023-02-21T04:10:47;-16171.13;;;8.76;74.79
65157;BME280;52745;49.794;18.258;2023-02-21T04:13:14;-16168.69;;;8.66;75.21
65157;BME280;52745;49.794;18.258;2023-02-21T04:15:45;-16168.56;;;8.66;75.62
65157;BME280;52745;49.794;18.258;2023-02-21T04:18:12;-16168.56;;;8.66;75.59
65157;BME280;52745;49.794;18.258;2023-02-21T04:20:40;-16167.47;;;8.62;75.69
65157;BME280;52745;49.794;18.258;2023-02-21T04:23:10;-16166.38;;;8.58;75.88
65157;BME280;52745;49.794;18.258;2023-02-21T04:25:37;-16168.28;;;8.65;75.66
65157;BME280;52745;49.794;18.258;2023-02-21T04:28:09;-16168.00;;;8.64;75.83
65157;BME280;52745;49.794;18.258;2023-02-21T04:30:36;-16168.13;;;8.64;76.05
65157;BME280;52745;49.794;18.258;2023-02-21T04:33:04;-16168.00;;;8.64;75.79
65157;BME280;52745;49.794;18.258;2023-02-21T04:35:31;-16168.97;;;8.67;75.77
65157;BME280;52745;49.794;18.258;2023-02-21T04:38:02;-16168.56;;;8.66;75.85
65157;BME280;52745;49.794;18.258;2023-02-21T04:40:29;-16167.59;;;8.62;76.13
65157;BME280;52745;49.794;18.258;2023-02-21T04:42:56;-16167.03;;;8.60;76.53
65157;BME280;52745;49.794;18.258;2023-02-21T04:45:22;-16166.50;;;8.58;76.85
65157;BME280;52745;49.794;18.258;2023-02-21T04:47:49;-16166.63;;;8.59;76.78
65157;BME280;52745;49.794;18.258;2023-02-21T04:50:16;-16165.94;;;8.56;76.93
65157;BME280;52745;49.794;18.258;2023-02-21T04:52:43;-16165.13;;;8.53;76.77
65157;BME280;52745;49.794;18.258;2023-02-21T04:55:09;-16165.13;;;8.53;76.79
65157;BME280;52745;49.794;18.258;2023-02-21T04:57:36;-16166.78;;;8.59;77.02
65157;BME280;52745;49.794;18.258;2023-02-21T05:00:03;-16165.00;;;8.53;76.86
65157;BME280;52745;49.794;18.258;2023-02-21T05:02:33;-16164.31;;;8.50;77.00
65157;BME280;52745;49.794;18.258;2023-02-21T05:04:59;-16164.72;;;8.52;77.04
65157;BME280;52745;49.794;18.258;2023-02-21T05:07:26;-16163.91;;;8.48;77.12
65157;BME280;52745;49.794;18.258;2023-02-21T05:09:53;-16163.91;;;8.48;77.35
65157;BME280;52745;49.794;18.258;2023-02-21T05:12:20;-16164.19;;;8.49;76.92
65157;BME280;52745;49.794;18.258;2023-02-21T05:14:46;-16165.28;;;8.54;77.13
65157;BME280;52745;49.794;18.258;2023-02-21T05:17:13;-16164.88;;;8.52;76.87
65157;BME280;52745;49.794;18.258;2023-02-21T05:19:40;-16165.56;;;8.55;77.16
65157;BME280;52745;49.794;18.258;2023-02-21T05:22:07;-16165.00;;;8.53;77.19
65157;BME280;52745;49.794;18.258;2023-02-21T05:24:34;-16165.41;;;8.54;77.08
65157;BME280;52745;49.794;18.258;2023-02-21T05:27:08;-16164.47;;;8.51;77.57
65157;BME280;52745;49.794;18.258;2023-02-21T05:29:44;-16164.47;;;8.51;77.38
65157;BME280;52745;49.794;18.258;2023-02-21T05:32:11;-16163.91;;;8.48;77.64
65157;BME280;52745;49.794;18.258;2023-02-21T05:34:38;-16164.03;;;8.49;77.72
65157;BME280;52745;49.794;18.258;2023-02-21T05:37:06;-16163.78;;;8.48;77.58
65157;BME280;52745;49.794;18.258;2023-02-21T05:39:33;-16164.19;;;8.49;77.79
65157;BME280;52745;49.794;18.258;2023-02-21T05:42:00;-16163.63;;;8.47;78.27
65157;BME280;52745;49.794;18.258;2023-02-21T05:44:26;-16163.38;;;8.46;78.30
65157;BME280;52745;49.794;18.258;2023-02-21T05:46:53;-16161.84;;;8.41;78.45
65157;BME280;52745;49.794;18.258;2023-02-21T05:49:20;-16161.44;;;8.39;78.36
65157;BME280;52745;49.794;18.258;2023-02-21T05:51:47;-16162.81;;;8.44;78.50
65157;BME280;52745;49.794;18.258;2023-02-21T05:54:17;-16162.81;;;8.44;78.61
65157;BME280;52745;49.794;18.258;2023-02-21T05:56:46;-16161.16;;;8.38;79.02
65157;BME280;52745;49.794;18.258;2023-02-21T05:59:15;-16160.91;;;8.37;79.08
65157;BME280;52745;49.794;18.258;2023-02-21T06:01:42;-16160.06;;;8.34;79.33
65157;BME280;52745;49.794;18.258;2023-02-21T06:04:09;-16162.53;;;8.43;78.95
65157;BME280;52745;49.794;18.258;2023-02-21T06:06:36;-16162.00;;;8.41;78.84
65157;BME280;52745;49.794;18.258;2023-02-21T06:09:04;-16161.59;;;8.40;79.28
65157;BME280;52745;49.794;18.258;2023-02-21T06:11:33;-16159.69;;;8.33;79.53
65157;BME280;52745;49.794;18.258;2023-02-21T06:14:02;-16159.13;;;8.31;79.44
65157;BME280;52745;49.794;18.258;2023-02-21T06:16:34;-16159.53;;;8.32;79.77
65157;BME280;52745;49.794;18.258;2023-02-21T06:19:02;-16160.50;;;8.36;79.89
65157;BME280;52745;49.794;18.258;2023-02-21T06:21:29;-16160.50;;;8.36;80.03
65157;BME280;52745;49.794;18.258;2023-02-21T06:23:56;-16161.31;;;8.39;80.08
65157;BME280;52745;49.794;18.258;2023-02-21T06:26:23;-16162.13;;;8.42;80.19
65157;BME280;52745;49.794;18.258;2023-02-21T06:28:49;-16161.31;;;8.39;80.11
65157;BME280;52745;49.794;18.258;2023-02-21T06:31:18;-16161.16;;;8.38;80.25
65157;BME280;52745;49.794;18.258;2023-02-21T06:33:46;-16160.91;;;8.37;80.14
65157;BME280;52745;49.794;18.258;2023-02-21T06:36:17;-16161.03;;;8.38;80.72
65157;BME280;52745;49.794;18.258;2023-02-21T06:38:48;-16162.28;;;8.42;80.63
65157;BME280;52745;49.794;18.258;2023-02-21T06:41:19;-16162.00;;;8.41;81.79
65157;BME280;52745;49.794;18.258;2023-02-21T06:43:46;-16162.53;;;8.43;81.96
65157;BME280;52745;49.794;18.258;2023-02-21T06:46:22;-16164.19;;;8.49;81.60
65157;BME280;52745;49.794;18.258;2023-02-21T06:48:49;-16163.22;;;8.46;81.41
65157;BME280;52745;49.794;18.258;2023-02-21T06:51:17;-16163.91;;;8.48;82.31
65157;BME280;52745;49.794;18.258;2023-02-21T06:53:46;-16164.03;;;8.49;81.01
65157;BME280;52745;49.794;18.258;2023-02-21T06:56:14;-16165.81;;;8.56;80.59
65157;BME280;52745;49.794;18.258;2023-02-21T06:58:41;-16164.31;;;8.50;80.78
65157;BME280;52745;49.794;18.258;2023-02-21T07:01:08;-16165.94;;;8.56;80.72
65157;BME280;52745;49.794;18.258;2023-02-21T07:03:38;-16164.47;;;8.51;80.86
65157;BME280;52745;49.794;18.258;2023-02-21T07:06:06;-16165.13;;;8.53;80.63
65157;BME280;52745;49.794;18.258;2023-02-21T07:08:32;-16170.88;;;8.75;87.10
65157;BME280;52745;49.794;18.258;2023-02-21T07:10:59;-16174.00;;;8.86;82.54
65157;BME280;52745;49.794;18.258;2023-02-21T07:13:26;-16176.47;;;8.96;83.11
65157;BME280;52745;49.794;18.258;2023-02-21T07:15:53;-16177.97;;;9.01;80.46
65157;BME280;52745;49.794;18.258;2023-02-21T07:18:19;-16173.19;;;8.83;79.63
65157;BME280;52745;49.794;18.258;2023-02-21T07:20:46;-16173.19;;;8.83;79.84
65157;BME280;52745;49.794;18.258;2023-02-21T07:23:13;-16172.38;;;8.80;80.50
65157;BME280;52745;49.794;18.258;2023-02-21T07:25:41;-16177.28;;;8.99;82.31
65157;BME280;52745;49.794;18.258;2023-02-21T07:28:10;-16178.78;;;9.04;82.23
65157;BME280;52745;49.794;18.258;2023-02-21T07:30:38;-16181.91;;;9.16;81.63
65157;BME280;52745;49.794;18.258;2023-02-21T07:33:04;-16178.38;;;9.03;80.03
65157;BME280;52745;49.794;18.258;2023-02-21T07:35:31;-16174.81;;;8.89;80.30
65157;BME280;52745;49.794;18.258;2023-02-21T07:37:58;-16176.88;;;8.97;80.23
65157;BME280;52745;49.794;18.258;2023-02-21T07:40:25;-16177.81;;;9.01;80.03
65157;BME280;52745;49.794;18.258;2023-02-21T07:42:52;-16177.56;;;9.00;80.07
65157;BME280;52745;49.794;18.258;2023-02-21T07:45:18;-16178.25;;;9.02;80.85
65157;BME280;52745;49.794;18.258;2023-02-21T07:47:45;-16177.28;;;8.99;80.62
65157;BME280;52745;49.794;18.258;2023-02-21T07:50:12;-16178.66;;;9.04;80.40
65157;BME280;52745;49.794;18.258;2023-02-21T07:52:39;-16180.00;;;9.09;80.32
65157;BME280;52745;49.794;18.258;2023-02-21T07:55:06;-16181.38;;;9.14;80.02
65157;BME280;52745;49.794;18.258;2023-02-21T07:57:33;-16183.28;;;9.21;79.94
65157;BME280;52745;49.794;18.258;2023-02-21T08:00:00;-16184.91;;;9.27;79.73
65157;BME280;52745;49.794;18.258;2023-02-21T08:02:26;-16187.78;;;9.38;79.18
65157;BME280;52745;49.794;18.258;2023-02-21T08:04:53;-16183.28;;;9.21;80.48
65157;BME280;52745;49.794;18.258;2023-02-21T08:07:20;-16184.66;;;9.26;79.61
65157;BME280;52745;49.794;18.258;2023-02-21T08:09:47;-16188.06;;;9.39;79.39
65157;BME280;52745;49.794;18.258;2023-02-21T08:12:13;-16190.66;;;9.49;78.91
65157;BME280;52745;49.794;18.258;2023-02-21T08:14:40;-16194.47;;;9.63;78.78
65157;BME280;52745;49.794;18.258;2023-02-21T08:17:07;-16195.03;;;9.65;78.08
65157;BME280;52745;49.794;18.258;2023-02-21T08:19:34;-16196.38;;;9.70;78.45
65157;BME280;52745;49.794;18.258;2023-02-21T08:22:00;-16198.69;;;9.79;77.77
65157;BME280;52745;49.794;18.258;2023-02-21T08:24:27;-16198.56;;;9.79;77.59
65157;BME280;52745;49.794;18.258;2023-02-21T08:26:54;-16199.66;;;9.83;77.37
65157;BME280;52745;49.794;18.258;2023-02-21T08:29:21;-16202.53;;;9.93;76.96
65157;BME280;52745;49.794;18.258;2023-02-21T08:31:47;-16201.44;;;9.89;76.58
65157;BME280;52745;49.794;18.258;2023-02-21T08:34:14;-16203.19;;;9.96;77.19
65157;BME280;52745;49.794;18.258;2023-02-21T08:36:42;-16205.66;;;10.05;76.82
65157;BME280;52745;49.794;18.258;2023-02-21T08:39:09;-16208.25;;;10.15;77.19
65157;BME280;52745;49.794;18.258;2023-02-21T08:41:39;-16209.47;;;10.20;76.98
65157;BME280;52745;49.794;18.258;2023-02-21T08:44:07;-16209.34;;;10.19;76.34
65157;BME280;52745;49.794;18.258;2023-02-21T08:46:34;-16210.97;;;10.25;76.53
65157;BME280;52745;49.794;18.258;2023-02-21T08:49:02;-16208.13;;;10.14;76.90
65157;BME280;52745;49.794;18.258;2023-02-21T08:51:30;-16208.25;;;10.15;76.68
65157;BME280;52745;49.794;18.258;2023-02-21T08:53:57;-16208.13;;;10.14;76.69
65157;BME280;52745;49.794;18.258;2023-02-21T08:56:25;-16207.56;;;10.12;76.01
65157;BME280;52745;49.794;18.258;2023-02-21T08:58:53;-16205.38;;;10.04;76.41
65157;BME280;52745;49.794;18.258;2023-02-21T09:01:21;-16206.22;;;10.07;76.00
65157;BME280;52745;49.794;18.258;2023-02-21T09:03:48;-16211.38;;;10.27;75.49
65157;BME280;52745;49.794;18.258;2023-02-21T09:06:15;-16212.47;;;10.31;75.53
65157;BME280;52745;49.794;18.258;2023-02-21T09:08:42;-16214.66;;;10.39;75.06
65157;BME280;52745;49.794;18.258;2023-02-21T09:11:09;-16219.44;;;10.57;74.81
65157;BME280;52745;49.794;18.258;2023-02-21T09:13:36;-16222.56;;;10.69;74.31
65157;BME280;52745;49.794;18.258;2023-02-21T09:16:03;-16225.28;;;10.79;74.12
65157;BME280;52745;49.794;18.258;2023-02-21T09:18:30;-16228.84;;;10.92;72.75
65157;BME280;52745;49.794;18.258;2023-02-21T09:20:57;-16233.47;;;11.10;72.06
65157;BME280;52745;49.794;18.258;2023-02-21T09:23:26;-16227.19;;;10.86;72.91
65157;BME280;52745;49.794;18.258;2023-02-21T09:25:53;-16222.28;;;10.68;73.54
65157;BME280;52745;49.794;18.258;2023-02-21T09:28:20;-16222.72;;;10.69;73.84
65157;BME280;52745;49.794;18.258;2023-02-21T09:30:48;-16219.31;;;10.56;74.10
65157;BME280;52745;49.794;18.258;2023-02-21T09:33:16;-16225.72;;;10.81;73.63
65157;BME280;52745;49.794;18.258;2023-02-21T09:35:43;-16234.56;;;11.14;72.19
65157;BME280;52745;49.794;18.258;2023-02-21T09:38:10;-16242.59;;;11.44;71.20
65157;BME280;52745;49.794;18.258;2023-02-21T09:41:00;-16339.53;;;15.09;59.48
65157;BME280;52745;49.794;18.258;2023-02-21T09:43:33;-16354.75;;;15.66;56.74
65157;BME280;52745;49.794;18.258;2023-02-21T09:46:06;-16326.88;;;14.61;58.17
65157;BME280;52745;49.794;18.258;2023-02-21T09:48:35;-16316.69;;;14.23;59.67
65157;BME280;52745;49.794;18.258;2023-02-21T09:51:04;-16303.22;;;13.72;61.18
65157;BME280;52745;49.794;18.258;2023-02-21T09:53:38;-16288.09;;;13.15;63.69
65157;BME280;52745;49.794;18.258;2023-02-21T09:56:20;-16294.22;;;13.38;63.34
65157;BME280;52745;49.794;18.258;2023-02-21T09:58:51;-16282.50;;;12.94;64.10
65157;BME280;52745;49.794;18.258;2023-02-21T10:07:03;-16302.53;;;13.70;61.55
65157;BME280;52745;49.794;18.258;2023-02-21T10:15:02;-16297.63;;;13.51;62.74
65157;BME280;52745;49.794;18.258;2023-02-21T10:17:40;-16310.69;;;14.00;61.31
65157;BME280;52745;49.794;18.258;2023-02-21T10:20:28;-16302.13;;;13.68;61.32
65157;BME280;52745;49.794;18.258;2023-02-21T10:22:56;-16295.03;;;13.41;62.49
65157;BME280;52745;49.794;18.258;2023-02-21T10:25:30;-16294.50;;;13.39;62.33
65157;BME280;52745;49.794;18.258;2023-02-21T10:27:58;-16317.63;;;14.26;60.11
65157;BME280;52745;49.794;18.258;2023-02-21T10:30:31;-16309.75;;;13.97;60.62
65157;BME280;52745;49.794;18.258;2023-02-21T10:33:01;-16292.31;;;13.31;62.62
65157;BME280;52745;49.794;18.258;2023-02-21T10:35:37;-16296.13;;;13.45;62.53
65157;BME280;52745;49.794;18.258;2023-02-21T10:38:10;-16284.97;;;13.03;63.29
65157;BME280;52745;49.794;18.258;2023-02-21T10:40:50;-16269.16;;;12.44;65.40
65157;BME280;52745;49.794;18.258;2023-02-21T10:43:37;-16261.94;;;12.17;66.69
65157;BME280;52745;49.794;18.258;2023-02-21T10:46:20;-16253.91;;;11.87;68.01
65157;BME280;52745;49.794;18.258;2023-02-21T10:48:51;-16254.31;;;11.88;68.96
65157;BME280;52745;49.794;18.258;2023-02-21T10:54:23;-16253.91;;;11.87;69.40
65157;BME280;52745;49.794;18.258;2023-02-21T10:56:51;-16249.16;;;11.69;69.72
65157;BME280;52745;49.794;18.258;2023-02-21T10:59:26;-16248.19;;;11.65;70.13
65157;BME280;52745;49.794;18.258;2023-02-21T11:01:54;-16246.28;;;11.58;70.28
65157;BME280;52745;49.794;18.258;2023-02-21T11:04:33;-16244.78;;;11.52;71.00
65157;BME280;52745;49.794;18.258;2023-02-21T11:07:07;-16242.59;;;11.44;71.07
65157;BME280;52745;49.794;18.258;2023-02-21T11:09:38;-16243.00;;;11.46;71.08
65157;BME280;52745;49.794;18.258;2023-02-21T11:15:02;-16239.59;;;11.33;72.06
65157;BME280;52745;49.794;18.258;2023-02-21T11:17:31;-16246.97;;;11.60;71.59
65157;BME280;52745;49.794;18.258;2023-02-21T11:30:37;-16266.31;;;12.33;68.57
65157;BME280;52745;49.794;18.258;2023-02-21T11:33:06;-16268.91;;;12.43;67.92
65157;BME280;52745;49.794;18.258;2023-02-21T11:35:37;-16266.44;;;12.34;68.09
65157;BME280;52745;49.794;18.258;2023-02-21T11:38:07;-16269.44;;;12.45;67.69
65157;BME280;52745;49.794;18.258;2023-02-21T11:40:41;-16263.72;;;12.24;67.96
65157;BME280;52745;49.794;18.258;2023-02-21T11:43:17;-16268.63;;;12.42;67.37
65157;BME280;52745;49.794;18.258;2023-02-21T11:48:43;-16266.19;;;12.33;67.44
65157;BME280;52745;49.794;18.258;2023-02-21T11:53:55;-16274.34;;;12.63;65.70
65157;BME280;52745;49.794;18.258;2023-02-21T12:14:18;-16257.88;;;12.01;67.85
65157;BME280;52745;49.794;18.258;2023-02-21T12:25:19;-16280.75;;;12.88;66.48
65157;BME280;52745;49.794;18.258;2023-02-21T12:27:51;-16296.13;;;13.45;63.84
65157;BME280;52745;49.794;18.258;2023-02-21T12:30:53;-16281.16;;;12.89;65.52
65157;BME280;52745;49.794;18.258;2023-02-21T12:44:18;-16274.88;;;12.66;66.42
65157;BME280;52745;49.794;18.258;2023-02-21T12:54:55;-16274.63;;;12.65;67.22
65157;BME280;52745;49.794;18.258;2023-02-21T12:57:40;-16271.09;;;12.51;66.97
65157;BME280;52745;49.794;18.258;2023-02-21T13:00:46;-16269.31;;;12.45;67.10
65157;BME280;52745;49.794;18.258;2023-02-21T13:05:49;-16267.81;;;12.39;65.12
65157;BME280;52745;49.794;18.258;2023-02-21T13:08:49;-16265.34;;;12.30;66.15
65157;BME280;52745;49.794;18.258;2023-02-21T13:13:55;-16258.16;;;12.03;63.84
65157;BME280;52745;49.794;18.258;2023-02-21T13:16:24;-16256.63;;;11.97;64.53
65157;BME280;52745;49.794;18.258;2023-02-21T13:18:56;-16257.06;;;11.98;64.10
65157;BME280;52745;49.794;18.258;2023-02-21T13:27:56;-16265.63;;;12.31;63.42
65157;BME280;52745;49.794;18.258;2023-02-21T13:29:50;-16262.91;;;12.20;63.44
65157;BME280;52745;49.794;18.258;2023-02-21T13:32:18;-16262.91;;;12.20;63.83
65157;BME280;52745;49.794;18.258;2023-02-21T13:34:59;-16259.91;;;12.09;63.91
65157;BME280;52745;49.794;18.258;2023-02-21T13:37:31;-16257.59;;;12.00;64.35
65157;BME280;52745;49.794;18.258;2023-02-21T13:40:04;-16257.88;;;12.01;65.08
65157;BME280;52745;49.794;18.258;2023-02-21T13:42:37;-16259.09;;;12.06;65.57
65157;BME280;52745;49.794;18.258;2023-02-21T13:45:18;-16253.22;;;11.84;67.86
65157;BME280;52745;49.794;18.258;2023-02-21T13:55:35;-16250.22;;;11.73;69.62
65157;BME280;52745;49.794;18.258;2023-02-21T14:08:40;-16248.59;;;11.67;70.35
65157;BME280;52745;49.794;18.258;2023-02-21T14:13:58;-16242.47;;;11.44;71.79
65157;BME280;52745;49.794;18.258;2023-02-21T14:16:45;-16237.84;;;11.26;72.94
65157;BME280;52745;49.794;18.258;2023-02-21T14:19:24;-16238.09;;;11.27;72.81
65157;BME280;52745;49.794;18.258;2023-02-21T14:22:14;-16237.03;;;11.23;73.82
65157;BME280;52745;49.794;18.258;2023-02-21T14:24:47;-16234.56;;;11.14;73.64
65157;BME280;52745;49.794;18.258;2023-02-21T14:29:45;-16233.75;;;11.11;74.11
65157;BME280;52745;49.794;18.258;2023-02-21T14:38:01;-16227.47;;;10.87;75.44
65157;BME280;52745;49.794;18.258;2023-02-21T14:46:06;-16226.25;;;10.83;76.28
65157;BME280;52745;49.794;18.258;2023-02-21T14:58:40;-16219.84;;;10.59;79.19
65157;BME280;52745;49.794;18.258;2023-02-21T15:03:32;-16215.47;;;10.42;80.99
65157;BME280;52745;49.794;18.258;2023-02-21T15:06:03;-16213.44;;;10.34;81.34
65157;BME280;52745;49.794;18.258;2023-02-21T15:08:43;-16210.97;;;10.25;82.25
65157;BME280;52745;49.794;18.258;2023-02-21T15:17:11;-16213.31;;;10.34;81.81
65157;BME280;52745;49.794;18.258;2023-02-21T15:19:36;-16213.44;;;10.34;81.32
65157;BME280;52745;49.794;18.258;2023-02-21T15:24:39;-16211.25;;;10.26;81.50
65157;BME280;52745;49.794;18.258;2023-02-21T15:27:10;-16211.66;;;10.28;81.70
65157;BME280;52745;49.794;18.258;2023-02-21T15:29:39;-16211.38;;;10.27;81.63
65157;BME280;52745;49.794;18.258;2023-02-21T15:32:06;-16212.22;;;10.30;81.41
65157;BME280;52745;49.794;18.258;2023-02-21T15:34:39;-16213.03;;;10.33;81.41
65157;BME280;52745;49.794;18.258;2023-02-21T15:37:19;-16210.56;;;10.24;81.60
65157;BME280;52745;49.794;18.258;2023-02-21T15:39:52;-16209.06;;;10.18;82.16
65157;BME280;52745;49.794;18.258;2023-02-21T15:42:21;-16209.34;;;10.19;82.32
65157;BME280;52745;49.794;18.258;2023-02-21T15:45:02;-16209.06;;;10.18;82.63
65157;BME280;52745;49.794;18.258;2023-02-21T15:47:33;-16208.66;;;10.17;83.35
65157;BME280;52745;49.794;18.258;2023-02-21T15:50:10;-16204.84;;;10.02;85.25
65157;BME280;52745;49.794;18.258;2023-02-21T15:52:44;-16202.38;;;9.93;86.92
65157;BME280;52745;49.794;18.258;2023-02-21T15:57:45;-16196.38;;;9.70;89.20
65157;BME280;52745;49.794;18.258;2023-02-21T16:00:24;-16197.34;;;9.74;90.19
65157;BME280;52745;49.794;18.258;2023-02-21T16:02:51;-16194.06;;;9.62;91.20
65157;BME280;52745;49.794;18.258;2023-02-21T16:05:29;-16193.94;;;9.61;91.99
65157;BME280;52745;49.794;18.258;2023-02-21T16:08:00;-16193.38;;;9.59;92.11
65157;BME280;52745;49.794;18.258;2023-02-21T16:10:30;-16192.28;;;9.55;92.61
65157;BME280;52745;49.794;18.258;2023-02-21T16:13:00;-16191.88;;;9.53;93.11
65157;BME280;52745;49.794;18.258;2023-02-21T16:15:30;-16190.66;;;9.49;93.30